createdAt,value
2018-06-28T00:00:06.416Z,16.97
2018-06-28T00:01:06.414Z,16.90
2018-06-28T00:02:06.408Z,16.86
2018-06-28T00:03:06.403Z,16.84
2018-06-28T00:04:06.402Z,16.87
2018-06-28T00:05:06.396Z,16.76
2018-06-28T00:06:06.397Z,16.74
2018-06-28T00:07:06.387Z,16.71
2018-06-28T00:08:06.386Z,16.64
2018-06-28T00:09:06.379Z,16.64
2018-06-28T00:10:06.375Z,16.74
2018-06-28T00:11:06.373Z,16.74
2018-06-28T00:12:06.366Z,16.72
2018-06-28T00:13:06.362Z,16.69
2018-06-28T00:14:06.357Z,16.61
2018-06-28T00:15:06.354Z,16.68
2018-06-28T00:16:06.349Z,16.64
2018-06-28T00:17:06.345Z,16.58
2018-06-28T00:18:06.340Z,16.56
2018-06-28T00:19:06.336Z,16.57
2018-06-28T00:20:06.536Z,16.50
2018-06-28T00:21:06.330Z,16.51
2018-06-28T00:22:06.323Z,16.51
2018-06-28T00:23:06.319Z,16.53
2018-06-28T00:24:06.316Z,16.46
2018-06-28T00:25:06.311Z,16.41
2018-06-28T00:26:06.306Z,16.47
2018-06-28T00:27:06.302Z,16.42
2018-06-28T00:28:06.298Z,16.46
2018-06-28T00:29:06.293Z,16.42
2018-06-28T00:30:06.290Z,16.39
2018-06-28T00:31:06.284Z,16.39
2018-06-28T00:32:06.280Z,16.35
2018-06-28T00:33:06.276Z,16.49
2018-06-28T00:34:06.271Z,16.36
2018-06-28T00:35:06.267Z,16.42
2018-06-28T00:36:06.262Z,16.50
2018-06-28T00:37:06.258Z,16.43
2018-06-28T00:38:06.253Z,16.65
2018-06-28T00:39:06.249Z,16.69
2018-06-28T00:40:06.245Z,16.72
2018-06-28T00:41:06.240Z,16.76
2018-06-28T00:42:06.235Z,16.84
2018-06-28T00:43:06.231Z,16.87
2018-06-28T00:44:06.227Z,16.91
2018-06-28T00:45:06.226Z,16.81
2018-06-28T00:46:06.217Z,16.69
2018-06-28T00:47:06.213Z,16.69
2018-06-28T00:48:06.212Z,16.68
2018-06-28T00:49:06.204Z,16.71
2018-06-28T00:50:06.401Z,16.64
2018-06-28T00:51:06.194Z,16.61
2018-06-28T00:52:06.190Z,16.57
2018-06-28T00:53:06.186Z,16.61
2018-06-28T00:54:06.181Z,16.65
2018-06-28T00:55:06.176Z,16.68
2018-06-28T00:56:06.171Z,16.66
2018-06-28T00:57:06.168Z,16.74
2018-06-28T00:58:06.162Z,16.71
2018-06-28T00:59:06.157Z,16.74
2018-06-28T01:00:06.155Z,16.75
2018-06-28T01:01:06.149Z,16.71
2018-06-28T01:02:06.144Z,16.72
2018-06-28T01:03:06.140Z,16.60
2018-06-28T01:04:06.135Z,16.61
2018-06-28T01:05:06.131Z,16.50
2018-06-28T01:06:06.126Z,16.50
2018-06-28T01:07:06.121Z,16.42
2018-06-28T01:08:06.117Z,16.41
2018-06-28T01:09:06.113Z,16.32
2018-06-28T01:10:06.109Z,16.29
2018-06-28T01:11:06.103Z,16.23
2018-06-28T01:12:06.099Z,16.09
2018-06-28T01:13:06.095Z,16.12
2018-06-28T01:14:06.090Z,16.13
2018-06-28T01:15:06.085Z,16.09
2018-06-28T01:16:06.081Z,16.09
2018-06-28T01:17:06.076Z,15.97
2018-06-28T01:18:06.071Z,16.09
2018-06-28T01:19:06.068Z,16.01
2018-06-28T01:20:06.062Z,16.01
2018-06-28T01:21:06.058Z,15.97
2018-06-28T01:22:06.053Z,16.00
2018-06-28T01:23:06.048Z,15.92
2018-06-28T01:24:06.044Z,15.90
2018-06-28T01:25:06.040Z,15.83
2018-06-28T01:26:06.034Z,15.82
2018-06-28T01:27:06.030Z,15.77
2018-06-28T01:28:06.025Z,15.80
2018-06-28T01:29:06.021Z,15.68
2018-06-28T01:30:06.018Z,15.73
2018-06-28T01:31:06.011Z,15.76
2018-06-28T01:32:06.009Z,15.68
2018-06-28T01:33:06.003Z,15.62
2018-06-28T01:34:05.999Z,15.68
2018-06-28T01:35:05.992Z,15.65
2018-06-28T01:36:05.987Z,15.62
2018-06-28T01:37:05.983Z,15.62
2018-06-28T01:38:05.979Z,15.58
2018-06-28T01:39:05.972Z,15.64
2018-06-28T01:40:05.969Z,15.57
2018-06-28T01:41:05.964Z,15.62
2018-06-28T01:42:05.958Z,15.62
2018-06-28T01:43:05.960Z,15.62
2018-06-28T01:44:05.949Z,15.76
2018-06-28T01:45:05.944Z,15.80
2018-06-28T01:46:05.938Z,15.77
2018-06-28T01:47:05.933Z,15.83
2018-06-28T01:48:05.932Z,15.80
2018-06-28T01:49:05.924Z,15.80
2018-06-28T01:50:05.921Z,15.64
2018-06-28T01:51:05.914Z,15.68
2018-06-28T01:52:05.910Z,15.65
2018-06-28T01:53:05.994Z,15.57
2018-06-28T01:54:05.899Z,15.57
2018-06-28T01:55:05.895Z,15.58
2018-06-28T01:56:05.889Z,15.54
2018-06-28T01:57:05.884Z,15.51
2018-06-28T01:58:05.879Z,15.40
2018-06-28T01:59:05.874Z,15.37
2018-06-28T02:00:05.874Z,15.39
2018-06-28T02:01:05.864Z,15.35
2018-06-28T02:02:05.858Z,15.33
2018-06-28T02:03:06.056Z,15.28
2018-06-28T02:04:05.849Z,15.29
2018-06-28T02:05:05.844Z,15.25
2018-06-28T02:06:05.842Z,15.21
2018-06-28T02:07:05.833Z,15.18
2018-06-28T02:08:05.829Z,15.18
2018-06-28T02:09:05.824Z,15.15
2018-06-28T02:10:06.021Z,15.04
2018-06-28T02:11:05.814Z,15.06
2018-06-28T02:12:05.808Z,15.00
2018-06-28T02:13:05.816Z,14.94
2018-06-28T02:14:05.799Z,14.99
2018-06-28T02:15:05.793Z,15.00
2018-06-28T02:16:05.788Z,15.00
2018-06-28T02:17:05.783Z,14.96
2018-06-28T02:18:05.777Z,14.91
2018-06-28T02:19:05.772Z,14.99
2018-06-28T02:20:05.969Z,14.96
2018-06-28T02:21:05.763Z,14.97
2018-06-28T02:22:05.756Z,14.91
2018-06-28T02:23:05.751Z,14.92
2018-06-28T02:24:05.750Z,14.91
2018-06-28T02:25:05.741Z,14.99
2018-06-28T02:26:05.735Z,14.92
2018-06-28T02:27:05.735Z,14.99
2018-06-28T02:28:05.725Z,14.96
2018-06-28T02:29:05.720Z,15.00
2018-06-28T02:30:05.714Z,14.99
2018-06-28T02:31:05.709Z,15.00
2018-06-28T02:32:05.707Z,15.11
2018-06-28T02:33:05.698Z,15.10
2018-06-28T02:34:05.695Z,15.03
2018-06-28T02:35:05.687Z,15.02
2018-06-28T02:36:05.682Z,15.04
2018-06-28T02:37:05.677Z,14.96
2018-06-28T02:38:05.671Z,15.02
2018-06-28T02:39:05.665Z,14.96
2018-06-28T02:40:05.670Z,14.97
2018-06-28T02:41:05.658Z,14.88
2018-06-28T02:42:05.649Z,14.79
2018-06-28T02:43:05.644Z,14.73
2018-06-28T02:44:05.639Z,14.65
2018-06-28T02:45:05.633Z,14.65
2018-06-28T02:46:05.632Z,14.55
2018-06-28T02:47:05.622Z,14.68
2018-06-28T02:48:05.619Z,14.45
2018-06-28T02:49:05.611Z,14.41
2018-06-28T02:50:05.605Z,14.48
2018-06-28T02:51:05.600Z,14.35
2018-06-28T02:52:05.595Z,14.43
2018-06-28T02:53:05.590Z,14.36
2018-06-28T02:54:05.587Z,14.32
2018-06-28T02:55:05.581Z,14.23
2018-06-28T02:56:05.573Z,14.23
2018-06-28T02:57:05.567Z,14.23
2018-06-28T02:58:05.564Z,14.23
2018-06-28T02:59:05.556Z,14.29
2018-06-28T03:00:05.550Z,14.29
2018-06-28T03:01:05.546Z,14.28
2018-06-28T03:02:05.542Z,14.23
2018-06-28T03:03:05.533Z,14.15
2018-06-28T03:04:05.528Z,14.12
2018-06-28T03:05:05.522Z,14.25
2018-06-28T03:06:05.516Z,14.23
2018-06-28T03:07:05.511Z,14.15
2018-06-28T03:08:05.505Z,14.15
2018-06-28T03:09:05.500Z,14.14
2018-06-28T03:10:05.493Z,14.10
2018-06-28T03:11:05.488Z,14.04
2018-06-28T03:12:05.485Z,14.07
2018-06-28T03:13:05.478Z,14.04
2018-06-28T03:14:05.474Z,14.04
2018-06-28T03:15:05.473Z,14.04
2018-06-28T03:16:05.460Z,14.10
2018-06-28T03:17:05.454Z,13.97
2018-06-28T03:18:05.448Z,13.96
2018-06-28T03:19:05.453Z,13.93
2018-06-28T03:20:05.438Z,13.93
2018-06-28T03:21:05.437Z,13.89
2018-06-28T03:22:05.424Z,13.92
2018-06-28T03:23:05.422Z,13.86
2018-06-28T03:24:05.413Z,13.85
2018-06-28T03:25:05.408Z,13.85
2018-06-28T03:26:05.402Z,13.90
2018-06-28T03:27:05.399Z,13.87
2018-06-28T03:28:05.392Z,13.86
2018-06-28T03:29:05.386Z,13.83
2018-06-28T03:30:05.380Z,13.85
2018-06-28T03:31:05.396Z,13.77
2018-06-28T03:32:05.367Z,13.77
2018-06-28T03:33:05.365Z,13.79
2018-06-28T03:34:05.354Z,13.85
2018-06-28T03:35:05.349Z,13.85
2018-06-28T03:36:05.346Z,13.83
2018-06-28T03:37:05.337Z,13.86
2018-06-28T03:38:05.510Z,13.87
2018-06-28T03:39:05.326Z,13.90
2018-06-28T03:40:05.319Z,13.92
2018-06-28T03:41:05.314Z,13.90
2018-06-28T03:42:05.312Z,13.92
2018-06-28T03:43:05.301Z,13.93
2018-06-28T03:44:05.298Z,13.90
2018-06-28T03:45:05.293Z,13.87
2018-06-28T03:46:05.287Z,13.87
2018-06-28T03:47:05.281Z,13.87
2018-06-28T03:48:05.272Z,13.92
2018-06-28T03:49:05.269Z,13.96
2018-06-28T03:50:05.262Z,13.93
2018-06-28T03:51:05.255Z,13.97
2018-06-28T03:52:05.252Z,13.95
2018-06-28T03:53:05.243Z,13.95
2018-06-28T03:54:05.238Z,13.93
2018-06-28T03:55:05.241Z,13.93
2018-06-28T03:56:05.229Z,14.05
2018-06-28T03:57:05.219Z,13.95
2018-06-28T03:58:05.214Z,13.95
2018-06-28T03:59:05.207Z,14.04
2018-06-28T04:00:05.206Z,14.04
2018-06-28T04:01:05.196Z,14.05
2018-06-28T04:02:05.189Z,14.04
2018-06-28T04:03:05.189Z,14.05
2018-06-28T04:04:05.181Z,14.04
2018-06-28T04:05:05.175Z,13.99
2018-06-28T04:06:05.172Z,14.04
2018-06-28T04:07:05.161Z,14.04
2018-06-28T04:08:05.154Z,14.08
2018-06-28T04:09:05.149Z,14.11
2018-06-28T04:10:05.145Z,14.05
2018-06-28T04:11:05.141Z,14.08
2018-06-28T04:12:05.138Z,14.22
2018-06-28T04:13:05.128Z,14.25
2018-06-28T04:14:05.120Z,14.22
2018-06-28T04:15:05.113Z,14.35
2018-06-28T04:16:05.109Z,14.29
2018-06-28T04:17:05.102Z,14.37
2018-06-28T04:18:05.297Z,14.29
2018-06-28T04:19:05.090Z,14.29
2018-06-28T04:20:05.085Z,14.28
2018-06-28T04:21:05.285Z,14.26
2018-06-28T04:22:05.072Z,14.23
2018-06-28T04:23:05.070Z,14.36
2018-06-28T04:24:05.061Z,14.32
2018-06-28T04:25:05.058Z,14.29
2018-06-28T04:26:05.053Z,14.30
2018-06-28T04:27:05.044Z,14.29
2018-06-28T04:28:05.038Z,14.20
2018-06-28T04:29:05.038Z,14.26
2018-06-28T04:30:05.028Z,14.25
2018-06-28T04:31:05.025Z,14.29
2018-06-28T04:32:05.016Z,14.37
2018-06-28T04:33:05.011Z,14.33
2018-06-28T04:34:05.003Z,14.37
2018-06-28T04:35:04.999Z,14.44
2018-06-28T04:36:04.993Z,14.44
2018-06-28T04:37:04.996Z,14.48
2018-06-28T04:38:04.985Z,14.55
2018-06-28T04:39:05.178Z,14.54
2018-06-28T04:40:04.971Z,14.60
2018-06-28T04:41:05.025Z,14.54
2018-06-28T04:42:04.964Z,14.63
2018-06-28T04:43:04.958Z,14.68
2018-06-28T04:44:04.953Z,14.69
2018-06-28T04:45:04.943Z,14.68
2018-06-28T04:46:04.941Z,14.84
2018-06-28T04:47:04.937Z,14.78
2018-06-28T04:48:04.927Z,14.82
2018-06-28T04:49:04.922Z,14.88
2018-06-28T04:50:04.917Z,14.97
2018-06-28T04:51:04.911Z,14.94
2018-06-28T04:52:05.111Z,15.07
2018-06-28T04:53:04.906Z,14.96
2018-06-28T04:54:04.895Z,15.03
2018-06-28T04:55:04.895Z,15.02
2018-06-28T04:56:04.891Z,15.09
2018-06-28T04:57:04.880Z,15.06
2018-06-28T04:58:04.874Z,15.19
2018-06-28T04:59:04.869Z,15.22
2018-06-28T05:00:04.866Z,15.17
2018-06-28T05:01:04.861Z,15.27
2018-06-28T05:02:04.853Z,15.22
2018-06-28T05:03:04.848Z,15.21
2018-06-28T05:04:04.843Z,15.25
2018-06-28T05:05:04.838Z,15.33
2018-06-28T05:06:04.832Z,15.40
2018-06-28T05:07:04.885Z,15.40
2018-06-28T05:08:04.823Z,15.44
2018-06-28T05:09:04.818Z,15.58
2018-06-28T05:10:04.813Z,15.55
2018-06-28T05:11:04.807Z,15.58
2018-06-28T05:12:04.802Z,15.57
2018-06-28T05:13:04.804Z,15.57
2018-06-28T05:14:04.793Z,15.59
2018-06-28T05:15:04.874Z,15.67
2018-06-28T05:16:04.783Z,15.67
2018-06-28T05:17:04.847Z,15.62
2018-06-28T05:18:04.773Z,15.73
2018-06-28T05:19:05.017Z,15.83
2018-06-28T05:20:04.767Z,15.86
2018-06-28T05:21:04.759Z,15.91
2018-06-28T05:22:04.761Z,15.98
2018-06-28T05:23:04.749Z,16.01
2018-06-28T05:24:04.744Z,16.05
2018-06-28T05:25:04.741Z,16.13
2018-06-28T05:26:04.735Z,16.09
2018-06-28T05:27:04.730Z,16.15
2018-06-28T05:28:04.807Z,16.28
2018-06-28T05:29:04.740Z,16.36
2018-06-28T05:30:04.717Z,16.39
2018-06-28T05:31:04.713Z,16.50
2018-06-28T05:32:04.713Z,16.65
2018-06-28T05:33:04.705Z,16.69
2018-06-28T05:34:04.704Z,16.66
2018-06-28T05:35:04.697Z,16.75
2018-06-28T05:36:04.692Z,16.91
2018-06-28T05:37:04.687Z,16.99
2018-06-28T05:38:04.687Z,16.99
2018-06-28T05:39:04.678Z,17.11
2018-06-28T05:40:04.674Z,17.16
2018-06-28T05:41:04.873Z,17.20
2018-06-28T05:42:04.666Z,17.27
2018-06-28T05:43:04.662Z,17.36
2018-06-28T05:44:04.658Z,17.51
2018-06-28T05:45:04.658Z,17.48
2018-06-28T05:46:04.659Z,17.56
2018-06-28T05:47:04.654Z,17.67
2018-06-28T05:48:04.644Z,17.79
2018-06-28T05:49:04.642Z,17.80
2018-06-28T05:50:04.635Z,17.76
2018-06-28T05:51:04.632Z,17.90
2018-06-28T05:52:04.628Z,17.98
2018-06-28T05:53:04.629Z,18.00
2018-06-28T05:54:04.637Z,18.04
2018-06-28T05:55:04.617Z,17.97
2018-06-28T05:56:04.618Z,18.08
2018-06-28T05:57:04.610Z,18.15
2018-06-28T05:58:04.611Z,18.23
2018-06-28T05:59:04.607Z,18.31
2018-06-28T06:00:04.600Z,18.37
2018-06-28T06:01:04.600Z,18.40
2018-06-28T06:02:04.595Z,18.49
2018-06-28T06:03:04.590Z,18.59
2018-06-28T06:04:04.590Z,18.62
2018-06-28T06:05:04.584Z,18.68
2018-06-28T06:06:04.583Z,18.74
2018-06-28T06:07:04.578Z,18.81
2018-06-28T06:08:04.574Z,18.92
2018-06-28T06:09:04.574Z,18.88
2018-06-28T06:10:04.567Z,18.93
2018-06-28T06:11:04.565Z,18.99
2018-06-28T06:12:04.642Z,19.08
2018-06-28T06:13:04.564Z,19.16
2018-06-28T06:14:04.758Z,19.18
2018-06-28T06:15:04.558Z,19.18
2018-06-28T06:16:04.551Z,19.26
2018-06-28T06:17:04.548Z,19.30
2018-06-28T06:18:04.544Z,19.39
2018-06-28T06:19:04.545Z,19.48
2018-06-28T06:20:04.539Z,19.52
2018-06-28T06:21:04.537Z,19.66
2018-06-28T06:22:04.534Z,19.71
2018-06-28T06:23:04.537Z,19.67
2018-06-28T06:24:04.534Z,19.74
2018-06-28T06:25:04.528Z,19.77
2018-06-28T06:26:04.524Z,19.77
2018-06-28T06:27:04.525Z,19.92
2018-06-28T06:28:04.519Z,20.03
2018-06-28T06:29:04.517Z,19.92
2018-06-28T06:30:04.514Z,20.07
2018-06-28T06:31:04.512Z,20.11
2018-06-28T06:32:04.510Z,20.11
2018-06-28T06:33:04.714Z,20.16
2018-06-28T06:34:04.504Z,20.29
2018-06-28T06:35:04.503Z,20.37
2018-06-28T06:36:04.501Z,20.37
2018-06-28T06:37:04.499Z,20.48
2018-06-28T06:38:04.497Z,20.60
2018-06-28T06:39:04.494Z,20.59
2018-06-28T06:40:04.494Z,20.69
2018-06-28T06:41:04.693Z,20.78
2018-06-28T06:42:04.491Z,20.70
2018-06-28T06:43:04.486Z,20.81
2018-06-28T06:44:04.485Z,20.84
2018-06-28T06:45:04.483Z,20.90
2018-06-28T06:46:04.481Z,20.90
2018-06-28T06:47:04.480Z,21.02
2018-06-28T06:48:04.481Z,21.03
2018-06-28T06:49:04.478Z,21.11
2018-06-28T06:50:04.475Z,21.14
2018-06-28T06:51:04.476Z,21.07
2018-06-28T06:52:04.472Z,21.21
2018-06-28T06:53:04.471Z,21.25
2018-06-28T06:54:04.468Z,21.33
2018-06-28T06:55:04.469Z,21.45
2018-06-28T06:56:04.467Z,21.55
2018-06-28T06:57:04.467Z,21.58
2018-06-28T06:58:04.463Z,21.55
2018-06-28T06:59:04.665Z,21.58
2018-06-28T07:00:04.461Z,21.57
2018-06-28T07:01:04.663Z,21.70
2018-06-28T07:02:04.458Z,21.69
2018-06-28T07:03:04.458Z,21.76
2018-06-28T07:04:04.460Z,21.91
2018-06-28T07:05:04.456Z,21.89
2018-06-28T07:06:04.457Z,22.06
2018-06-28T07:07:04.453Z,22.04
2018-06-28T07:08:04.456Z,22.07
2018-06-28T07:09:04.454Z,22.14
2018-06-28T07:10:04.457Z,22.29
2018-06-28T07:11:04.451Z,22.39
2018-06-28T07:12:04.451Z,22.47
2018-06-28T07:13:04.451Z,22.65
2018-06-28T07:14:04.449Z,22.66
2018-06-28T07:15:04.450Z,22.72
2018-06-28T07:16:04.559Z,22.75
2018-06-28T07:17:04.451Z,22.76
2018-06-28T07:18:04.455Z,22.83
2018-06-28T07:19:04.507Z,22.84
2018-06-28T07:20:04.457Z,23.05
2018-06-28T07:21:04.455Z,22.96
2018-06-28T07:22:04.455Z,22.98
2018-06-28T07:23:04.513Z,23.21
2018-06-28T07:24:04.466Z,23.28
2018-06-28T07:25:04.466Z,23.37
2018-06-28T07:26:04.464Z,23.46
2018-06-28T07:27:04.548Z,23.66
2018-06-28T07:28:04.585Z,23.83
2018-06-28T07:29:04.472Z,23.87
2018-06-28T07:30:04.474Z,24.01
2018-06-28T07:31:04.480Z,23.98
2018-06-28T07:32:04.484Z,24.10
2018-06-28T07:33:04.505Z,24.26
2018-06-28T07:34:04.496Z,24.47
2018-06-28T07:35:04.492Z,24.58
2018-06-28T07:36:04.491Z,24.57
2018-06-28T07:37:04.495Z,24.63
2018-06-28T07:38:04.499Z,24.81
2018-06-28T07:39:04.502Z,24.93
2018-06-28T07:40:04.512Z,24.96
2018-06-28T07:41:04.522Z,25.03
2018-06-28T07:42:04.516Z,25.08
2018-06-28T07:43:04.524Z,25.21
2018-06-28T07:44:04.530Z,25.29
2018-06-28T07:45:04.540Z,25.44
2018-06-28T07:46:04.542Z,25.59
2018-06-28T07:47:04.550Z,25.66
2018-06-28T07:48:04.558Z,25.78
2018-06-28T07:49:04.628Z,25.87
2018-06-28T07:50:04.579Z,25.95
2018-06-28T07:51:04.586Z,25.84
2018-06-28T07:52:04.599Z,26.06
2018-06-28T07:53:04.606Z,26.15
2018-06-28T07:54:04.612Z,26.34
2018-06-28T07:55:04.627Z,26.52
2018-06-28T07:56:04.634Z,26.53
2018-06-28T07:57:04.650Z,26.60
2018-06-28T07:58:04.657Z,26.53
2018-06-28T07:59:04.666Z,26.66
2018-06-28T08:00:04.678Z,26.80
2018-06-28T08:01:04.693Z,26.93
2018-06-28T08:03:04.716Z,26.51
2018-06-28T08:04:04.725Z,26.52
2018-06-28T08:05:04.738Z,26.75
2018-06-28T08:06:04.752Z,26.85
2018-06-28T08:07:04.762Z,27.00
2018-06-28T08:08:04.775Z,27.05
2018-06-28T08:09:04.791Z,27.17
2018-06-28T08:10:04.804Z,27.14
2018-06-28T08:11:04.814Z,26.97
2018-06-28T08:12:04.827Z,27.05
2018-06-28T08:13:04.848Z,27.22
2018-06-28T08:14:04.859Z,27.27
2018-06-28T08:15:04.869Z,27.37
2018-06-28T08:16:04.884Z,27.70
2018-06-28T08:17:04.894Z,27.93
2018-06-28T08:18:04.907Z,28.00
2018-06-28T08:19:04.924Z,27.92
2018-06-28T08:20:04.936Z,27.96
2018-06-28T08:21:04.950Z,27.89
2018-06-28T08:22:04.968Z,27.92
2018-06-28T08:23:04.978Z,27.95
2018-06-28T08:24:04.993Z,27.93
2018-06-28T08:25:05.012Z,28.00
2018-06-28T08:26:05.021Z,28.04
2018-06-28T08:27:05.036Z,28.12
2018-06-28T08:28:05.053Z,28.30
2018-06-28T08:29:05.066Z,28.37
2018-06-28T08:30:05.081Z,28.57
2018-06-28T08:31:05.095Z,28.57
2018-06-28T08:32:05.109Z,28.82
2018-06-28T08:33:05.126Z,28.69
2018-06-28T08:34:05.140Z,28.70
2018-06-28T08:35:05.359Z,28.64
2018-06-28T08:36:05.194Z,28.66
2018-06-28T08:37:05.187Z,28.76
2018-06-28T08:38:05.203Z,28.75
2018-06-28T08:39:05.216Z,28.64
2018-06-28T08:40:05.232Z,28.33
2018-06-28T08:41:05.251Z,28.17
2018-06-28T08:42:05.269Z,28.32
2018-06-28T08:43:05.281Z,28.39
2018-06-28T08:44:05.297Z,28.51
2018-06-28T08:45:05.513Z,28.66
2018-06-28T08:46:05.329Z,28.86
2018-06-28T08:47:05.343Z,28.93
2018-06-28T08:48:05.358Z,29.04
2018-06-28T08:49:05.404Z,29.22
2018-06-28T08:50:05.390Z,29.42
2018-06-28T08:51:05.447Z,29.39
2018-06-28T08:52:05.428Z,29.44
2018-06-28T08:53:05.645Z,29.41
2018-06-28T08:54:05.457Z,29.36
2018-06-28T08:55:05.479Z,29.41
2018-06-28T08:56:05.489Z,29.41
2018-06-28T08:57:05.515Z,29.26
2018-06-28T08:58:05.727Z,29.26
2018-06-28T08:59:05.537Z,29.24
2018-06-28T09:00:05.553Z,29.13
2018-06-28T09:01:05.573Z,28.97
2018-06-28T09:02:05.607Z,29.04
2018-06-28T09:03:05.612Z,29.23
2018-06-28T09:04:05.620Z,29.07
2018-06-28T09:05:05.639Z,29.24
2018-06-28T09:06:05.652Z,29.36
2018-06-28T09:07:05.672Z,29.53
2018-06-28T09:09:05.706Z,29.61
2018-06-28T09:10:05.723Z,29.22
2018-06-28T09:11:05.741Z,29.13
2018-06-28T09:12:05.752Z,29.13
2018-06-28T09:13:05.774Z,29.24
2018-06-28T09:14:05.788Z,29.34
2018-06-28T09:15:05.806Z,29.57
2018-06-28T09:16:05.823Z,29.65
2018-06-28T09:17:05.841Z,29.71
2018-06-28T09:18:06.059Z,29.78
2018-06-28T09:19:05.875Z,29.57
2018-06-28T09:20:05.888Z,29.38
2018-06-28T09:21:05.905Z,29.20
2018-06-28T09:22:05.929Z,29.05
2018-06-28T09:23:06.063Z,29.14
2018-06-28T09:24:05.956Z,29.45
2018-06-28T09:25:05.979Z,29.42
2018-06-28T09:26:05.990Z,29.57
2018-06-28T09:27:06.006Z,29.68
2018-06-28T09:28:06.026Z,29.88
2018-06-28T09:29:06.043Z,29.95
2018-06-28T09:30:06.058Z,29.94
2018-06-28T09:31:06.073Z,29.84
2018-06-28T09:33:06.108Z,30.09
2018-06-28T09:34:06.124Z,29.66
2018-06-28T09:35:06.144Z,29.72
2018-06-28T09:36:06.161Z,29.88
2018-06-28T09:37:06.177Z,30.16
2018-06-28T09:38:06.189Z,30.43
2018-06-28T09:39:06.206Z,30.48
2018-06-28T09:40:06.426Z,30.35
2018-06-28T09:41:06.240Z,30.16
2018-06-28T09:42:06.256Z,30.21
2018-06-28T09:43:06.274Z,30.03
2018-06-28T09:44:06.292Z,30.13
2018-06-28T09:45:06.312Z,30.28
2018-06-28T09:46:06.323Z,30.51
2018-06-28T09:47:06.340Z,30.75
2018-06-28T09:48:06.362Z,30.94
2018-06-28T09:49:06.381Z,31.24
2018-06-28T09:50:06.398Z,31.58
2018-06-28T09:51:06.410Z,31.80
2018-06-28T09:53:06.448Z,31.73
2018-06-28T09:54:06.465Z,31.47
2018-06-28T09:55:06.691Z,31.21
2018-06-28T09:56:06.501Z,31.05
2018-06-28T09:57:06.519Z,30.75
2018-06-28T09:58:06.536Z,30.84
2018-06-28T09:59:06.756Z,30.62
2018-06-28T10:00:06.578Z,30.40
2018-06-28T10:01:06.590Z,30.53
2018-06-28T10:02:06.611Z,30.37
2018-06-28T10:03:06.625Z,30.37
2018-06-28T10:04:06.643Z,30.66
2018-06-28T10:05:06.661Z,30.51
2018-06-28T10:06:06.687Z,30.46
2018-06-28T10:07:06.698Z,30.35
2018-06-28T10:08:06.920Z,30.39
2018-06-28T10:09:06.732Z,30.66
2018-06-28T10:10:06.750Z,30.83
2018-06-28T10:11:06.768Z,31.09
2018-06-28T10:12:06.785Z,31.25
2018-06-28T10:13:06.802Z,31.52
2018-06-28T10:14:07.028Z,31.78
2018-06-28T10:15:06.837Z,31.80
2018-06-28T10:16:06.860Z,31.73
2018-06-28T10:17:06.875Z,31.78
2018-06-28T10:18:07.000Z,31.58
2018-06-28T10:19:06.913Z,31.46
2018-06-28T10:20:06.930Z,31.66
2018-06-28T10:21:06.945Z,31.80
2018-06-28T10:22:06.962Z,32.03
2018-06-28T10:23:06.983Z,32.08
2018-06-28T10:24:06.999Z,32.12
2018-06-28T10:25:07.121Z,32.08
2018-06-28T10:26:07.036Z,31.94
2018-06-28T10:27:07.060Z,31.94
2018-06-28T10:28:07.075Z,32.09
2018-06-28T10:29:07.091Z,32.09
2018-06-28T10:30:07.109Z,32.14
2018-06-28T10:31:07.129Z,32.15
2018-06-28T10:32:07.149Z,32.21
2018-06-28T10:33:07.171Z,32.08
2018-06-28T10:34:07.183Z,32.04
2018-06-28T10:35:07.201Z,32.11
2018-06-28T10:36:07.220Z,32.09
2018-06-28T10:37:07.239Z,32.18
2018-06-28T10:38:07.257Z,31.99
2018-06-28T10:39:07.276Z,32.04
2018-06-28T10:40:07.303Z,32.40
2018-06-28T10:41:07.314Z,32.46
2018-06-28T10:42:07.335Z,32.29
2018-06-28T10:43:07.351Z,32.31
2018-06-28T10:44:07.373Z,32.12
2018-06-28T10:45:07.394Z,31.85
2018-06-28T10:46:07.410Z,31.93
2018-06-28T10:47:07.429Z,32.01
2018-06-28T10:48:07.445Z,32.03
2018-06-28T10:49:07.492Z,31.92
2018-06-28T10:50:07.486Z,32.22
2018-06-28T10:51:07.501Z,32.29
2018-06-28T10:52:07.520Z,32.26
2018-06-28T10:53:07.744Z,32.43
2018-06-28T10:54:07.641Z,32.65
2018-06-28T10:55:07.575Z,32.87
2018-06-28T10:56:07.594Z,32.90
2018-06-28T10:57:07.617Z,32.97
2018-06-28T10:58:07.635Z,33.09
2018-06-28T10:59:07.652Z,33.01
2018-06-28T11:00:07.669Z,33.04
2018-06-28T11:01:07.688Z,33.00
2018-06-28T11:02:07.707Z,33.14
2018-06-28T11:03:07.725Z,33.24
2018-06-28T11:04:07.745Z,33.39
2018-06-28T11:05:07.768Z,33.52
2018-06-28T11:06:07.782Z,33.43
2018-06-28T11:07:07.801Z,33.20
2018-06-28T11:08:07.821Z,32.86
2018-06-28T11:09:08.042Z,32.75
2018-06-28T11:10:08.067Z,32.83
2018-06-28T11:11:07.876Z,32.73
2018-06-28T11:12:07.896Z,32.34
2018-06-28T11:13:07.913Z,32.43
2018-06-28T11:14:07.930Z,32.89
2018-06-28T11:15:07.949Z,32.93
2018-06-28T11:16:07.972Z,32.87
2018-06-28T11:17:07.988Z,33.02
2018-06-28T11:18:08.009Z,32.86
2018-06-28T11:19:08.024Z,32.89
2018-06-28T11:20:08.048Z,33.00
2018-06-28T11:21:08.265Z,33.01
2018-06-28T11:22:08.078Z,32.96
2018-06-28T11:23:08.097Z,33.32
2018-06-28T11:24:08.116Z,33.34
2018-06-28T11:25:08.151Z,33.36
2018-06-28T11:26:08.355Z,33.43
2018-06-28T11:27:08.176Z,32.70
2018-06-28T11:28:08.193Z,32.45
2018-06-28T11:29:08.210Z,32.73
2018-06-28T11:30:08.229Z,32.92
2018-06-28T11:31:08.252Z,32.68
2018-06-28T11:32:08.267Z,32.52
2018-06-28T11:33:08.290Z,32.67
2018-06-28T11:34:08.359Z,32.43
2018-06-28T11:35:08.321Z,32.60
2018-06-28T11:36:08.339Z,32.90
2018-06-28T11:37:08.361Z,33.19
2018-06-28T11:38:08.375Z,33.46
2018-06-28T11:39:08.397Z,33.22
2018-06-28T11:40:08.412Z,32.83
2018-06-28T11:41:08.438Z,32.73
2018-06-28T11:42:08.447Z,32.90
2018-06-28T11:43:08.464Z,33.09
2018-06-28T11:44:08.482Z,33.05
2018-06-28T11:45:08.503Z,33.12
2018-06-28T11:46:08.519Z,33.00
2018-06-28T11:47:08.543Z,32.71
2018-06-28T11:48:08.560Z,32.80
2018-06-28T11:49:08.574Z,32.89
2018-06-28T11:50:08.590Z,32.92
2018-06-28T11:51:08.814Z,32.95
2018-06-28T11:52:08.669Z,32.87
2018-06-28T11:53:08.845Z,33.04
2018-06-28T11:54:08.659Z,33.43
2018-06-28T11:55:08.684Z,33.39
2018-06-28T11:56:08.695Z,33.50
2018-06-28T11:57:08.916Z,33.24
2018-06-28T11:58:08.731Z,33.09
2018-06-28T11:59:08.750Z,33.14
2018-06-28T12:00:08.768Z,33.43
2018-06-28T12:01:08.794Z,33.73
2018-06-28T12:02:08.805Z,34.01
2018-06-28T12:03:08.827Z,34.25
2018-06-28T12:04:08.847Z,34.50
2018-06-28T12:05:08.880Z,34.66
2018-06-28T12:06:08.880Z,34.45
2018-06-28T12:07:08.899Z,33.95
2018-06-28T12:08:08.920Z,33.69
2018-06-28T12:09:08.936Z,33.27
2018-06-28T12:10:08.955Z,33.02
2018-06-28T12:11:08.974Z,33.02
2018-06-28T12:12:08.995Z,33.31
2018-06-28T12:13:09.009Z,33.45
2018-06-28T12:14:09.431Z,33.37
2018-06-28T12:15:09.045Z,33.57
2018-06-28T12:16:09.063Z,33.62
2018-06-28T12:17:09.081Z,33.52
2018-06-28T12:19:09.117Z,33.22
2018-06-28T12:20:09.143Z,32.63
2018-06-28T12:21:09.153Z,32.26
2018-06-28T12:22:09.170Z,32.36
2018-06-28T12:23:09.187Z,32.53
2018-06-28T12:24:09.210Z,32.73
2018-06-28T12:25:09.220Z,32.55
2018-06-28T12:26:09.236Z,32.85
2018-06-28T12:27:09.254Z,32.97
2018-06-28T12:28:09.270Z,33.36
2018-06-28T12:29:09.286Z,33.58
2018-06-28T12:30:09.302Z,33.12
2018-06-28T12:31:09.336Z,32.73
2018-06-28T12:32:09.337Z,32.55
2018-06-28T12:33:09.350Z,32.14
2018-06-28T12:34:09.370Z,31.61
2018-06-28T12:35:09.378Z,31.40
2018-06-28T12:36:09.392Z,31.33
2018-06-28T12:37:09.409Z,31.24
2018-06-28T12:38:09.420Z,31.21
2018-06-28T12:39:09.472Z,31.28
2018-06-28T12:40:09.448Z,31.27
2018-06-28T12:41:09.455Z,31.28
2018-06-28T12:42:09.466Z,31.24
2018-06-28T12:43:09.480Z,31.58
2018-06-28T12:44:09.491Z,31.94
2018-06-28T12:45:09.504Z,31.93
2018-06-28T12:46:09.563Z,31.85
2018-06-28T12:47:09.532Z,31.70
2018-06-28T12:48:09.539Z,31.89
2018-06-28T12:49:09.551Z,32.12
2018-06-28T12:50:09.566Z,32.65
2018-06-28T12:51:09.574Z,33.14
2018-06-28T12:52:09.588Z,33.62
2018-06-28T12:53:09.602Z,33.98
2018-06-28T12:54:09.626Z,34.14
2018-06-28T12:55:09.629Z,34.03
2018-06-28T12:56:09.640Z,33.84
2018-06-28T12:57:09.654Z,33.92